Time;durP1;ratioP1;P1;durP2;ratioP2;P2;SDS_P1;SDS_P2;PMS_P1;PMS_P2;Temp;Humidity;BMP_temperature;BMP_pressure;BME280_temperature;BME280_humidity;BME280_pressure;Samples;Min_cycle;Max_cycle;Signal;HPM_P1;HPM_P2
2022/01/31 00:02:20;;;;;;;;;;;;;;;;;;4948507;28;19926;-66
2022/01/31 00:04:47;;;;;;;;;;;;;;;;;;4966513;28;19985;-65
2022/01/31 00:07:13;;;;;;;;;;;;;;;;;;4966813;28;19929;-66
2022/01/31 00:09:40;;;;;;;;;;;;;;;;;;4965764;28;19926;-65
2022/01/31 00:12:10;;;;;;;;;;;;;;;;;;4966859;28;20292;-65
2022/01/31 00:14:41;;;;;;;;;;;;;;;;;;4966226;28;19981;-66
2022/01/31 00:17:07;;;;;;;;;;;;;;;;;;4965600;28;20485;-66
2022/01/31 00:19:34;;;;;;;;;;;;;;;;;;4966123;28;19926;-66
2022/01/31 00:22:00;;;;;;;;;;;;;;;;;;4966613;28;19926;-64
2022/01/31 00:24:26;;;;;;;;;;;;;;;;;;4965535;28;19933;-66
2022/01/31 00:26:52;;;;;;;;;;;;;;;;;;4966696;28;19926;-66
2022/01/31 00:29:18;;;;;;;;;;;;;;;;;;4966172;28;19953;-66
2022/01/31 00:31:44;;;;;;;;;;;;;;;;;;4964842;28;19949;-66
2022/01/31 00:34:10;;;;;;;;;;;;;;;;;;4966561;28;19972;-65
2022/01/31 00:36:36;;;;;;;;;;;;;;;;;;4966048;28;20024;-66
2022/01/31 00:39:02;;;;;;;;;;;;;;;;;;4966475;28;19941;-65
2022/01/31 00:41:28;;;;;;;;;;;;;;;;;;4948340;28;19926;-66
2022/01/31 00:44:12;;;;;;;;;;;;;;;;;;4966298;28;19933;-66
2022/01/31 00:46:42;;;;;;;;;;;;;;;;;;4964936;28;20299;-65
2022/01/31 00:49:22;;;;;;;;;;;;;;;;;;4966645;28;20537;-66
2022/01/31 00:51:48;;;;;;;;;;;;;;;;;;4967019;28;19926;-66
2022/01/31 00:54:14;;;;;;;;;;;;;;;;;;4969905;28;19953;-66
2022/01/31 00:56:40;;;;;;;;;;;;;;;;;;4969821;28;19963;-66
2022/01/31 00:59:06;;;;;;;;;;;;;;;;;;4970043;28;20288;-66
2022/01/31 01:01:32;;;;;;;;;;;;;;;;;;4968818;28;19926;-66
2022/01/31 01:03:58;;;;;;;;;;;;;;;;;;4969800;28;19968;-66
2022/01/31 01:06:24;;;;;;;;;;;;;;;;;;4970305;28;19926;-65
2022/01/31 01:08:50;;;;;;;;;;;;;;;;;;4968813;28;20833;-66
2022/01/31 01:11:16;;;;;;;;;;;;;;;;;;4969863;28;19930;-65
2022/01/31 01:13:42;;;;;;;;;;;;;;;;;;4969490;28;20021;-66
2022/01/31 01:16:08;;;;;;;;;;;;;;;;;;4950736;28;19949;-66
2022/01/31 01:18:34;;;;;;;;;;;;;;;;;;4969127;28;19943;-66
2022/01/31 01:21:00;;;;;;;;;;;;;;;;;;4952415;28;19927;-66
2022/01/31 01:23:26;;;;;;;;;;;;;;;;;;4969245;28;19938;-65
2022/01/31 01:25:52;;;;;;;;;;;;;;;;;;4969616;28;20412;-66
2022/01/31 01:28:21;;;;;;;;;;;;;;;;;;4969579;28;19926;-65
2022/01/31 01:30:48;;;;;;;;;;;;;;;;;;4968830;28;19926;-65
2022/01/31 01:33:19;;;;;;;;;;;;;;;;;;4951499;28;19984;-66
2022/01/31 01:35:48;;;;;;;;;;;;;;;;;;4968964;28;19978;-65
2022/01/31 01:38:16;;;;;;;;;;;;;;;;;;4951819;28;19934;-65
2022/01/31 01:40:42;;;;;;;;;;;;;;;;;;4968871;28;19969;-66
2022/01/31 01:43:08;;;;;;;;;;;;;;;;;;4969168;28;19973;-66
2022/01/31 01:45:34;;;;;;;;;;;;;;;;;;4968178;28;20352;-65
2022/01/31 01:48:00;;;;;;;;;;;;;;;;;;4968639;28;20001;-65
2022/01/31 01:50:26;;;;;;;;;;;;;;;;;;4968721;28;19926;-66
2022/01/31 01:52:52;;;;;;;;;;;;;;;;;;4951822;28;20472;-64
2022/01/31 01:55:19;;;;;;;;;;;;;;;;;;4968579;28;20443;-65
2022/01/31 01:57:45;;;;;;;;;;;;;;;;;;4968466;28;20392;-65
2022/01/31 02:00:16;;;;;;;;;;;;;;;;;;4950906;28;19962;-65
2022/01/31 02:02:42;;;;;;;;;;;;;;;;;;4968345;28;20458;-65
2022/01/31 02:05:08;;;;;;;;;;;;;;;;;;4968350;28;19939;-65
2022/01/31 02:07:34;;;;;;;;;;;;;;;;;;4968880;28;19961;-65
2022/01/31 02:10:04;;;;;;;;;;;;;;;;;;4968408;28;20410;-65
2022/01/31 02:12:30;;;;;;;;;;;;;;;;;;4967898;28;20380;-65
2022/01/31 02:14:56;;;;;;;;;;;;;;;;;;4982695;23;19926;-65
2022/01/31 02:17:22;;;;;;;;;;;;;;;;;;4968830;28;19981;-66
2022/01/31 02:19:48;;;;;;;;;;;;;;;;;;4968014;28;19923;-65
2022/01/31 02:22:16;;;;;;;;;;;;;;;;;;4968043;28;21212;-66
2022/01/31 02:24:42;;;;;;;;;;;;;;;;;;4968029;28;20016;-65
2022/01/31 02:27:08;;;;;;;;;;;;;;;;;;4968243;28;19934;-66
2022/01/31 02:29:34;;;;;;;;;;;;;;;;;;4968248;28;20054;-66
2022/01/31 02:32:00;;;;;;;;;;;;;;;;;;4967899;28;19972;-66
2022/01/31 02:34:26;;;;;;;;;;;;;;;;;;4967946;28;19926;-66
2022/01/31 02:36:52;;;;;;;;;;;;;;;;;;4968313;28;20375;-66
2022/01/31 02:39:18;;;;;;;;;;;;;;;;;;4968506;28;19926;-66
2022/01/31 02:41:44;;;;;;;;;;;;;;;;;;4967916;28;19926;-66
2022/01/31 02:44:15;;;;;;;;;;;;;;;;;;4967023;28;19926;-66
2022/01/31 02:46:47;;;;;;;;;;;;;;;;;;4967388;28;19926;-66
2022/01/31 02:49:13;;;;;;;;;;;;;;;;;;4968506;28;20024;-66
2022/01/31 02:51:45;;;;;;;;;;;;;;;;;;4967365;28;19977;-66
2022/01/31 02:54:11;;;;;;;;;;;;;;;;;;4968011;28;19947;-66
2022/01/31 02:56:40;;;;;;;;;;;;;;;;;;4966734;28;19933;-66
2022/01/31 02:59:06;;;;;;;;;;;;;;;;;;4967679;28;19932;-67
2022/01/31 03:01:32;;;;;;;;;;;;;;;;;;4967050;28;20020;-66
2022/01/31 03:03:58;;;;;;;;;;;;;;;;;;4966916;28;20053;-66
2022/01/31 03:06:24;;;;;;;;;;;;;;;;;;4968051;28;20523;-65
2022/01/31 03:08:50;;;;;;;;;;;;;;;;;;4965896;28;20384;-65
2022/01/31 03:11:16;;;;;;;;;;;;;;;;;;4967938;28;19930;-66
2022/01/31 03:13:42;;;;;;;;;;;;;;;;;;4973450;28;19926;-66
2022/01/31 03:16:08;;;;;;;;;;;;;;;;;;4986068;28;20479;-65
2022/01/31 03:18:34;;;;;;;;;;;;;;;;;;4986816;28;19922;-65
2022/01/31 03:21:00;;;;;;;;;;;;;;;;;;4986896;28;19925;-65
2022/01/31 03:23:26;;;;;;;;;;;;;;;;;;4986018;28;19960;-65
2022/01/31 03:25:52;;;;;;;;;;;;;;;;;;4986973;28;20353;-65
2022/01/31 03:28:18;;;;;;;;;;;;;;;;;;4986894;28;19941;-65
2022/01/31 03:30:44;;;;;;;;;;;;;;;;;;4985411;28;19926;-65
2022/01/31 03:33:10;;;;;;;;;;;;;;;;;;4986770;28;19929;-65
2022/01/31 03:35:36;;;;;;;;;;;;;;;;;;4986617;28;19967;-65
2022/01/31 03:38:02;;;;;;;;;;;;;;;;;;4986390;28;20642;-65
2022/01/31 03:40:28;;;;;;;;;;;;;;;;;;4986270;28;19932;-66
2022/01/31 03:42:54;;;;;;;;;;;;;;;;;;4986623;28;19932;-66
2022/01/31 03:45:20;;;;;;;;;;;;;;;;;;4985585;28;20033;-66
2022/01/31 03:47:47;;;;;;;;;;;;;;;;;;4985670;28;19937;-66
2022/01/31 03:50:13;;;;;;;;;;;;;;;;;;4986680;28;19921;-66
2022/01/31 03:52:39;;;;;;;;;;;;;;;;;;4985924;28;19922;-66
2022/01/31 03:55:05;;;;;;;;;;;;;;;;;;4985875;28;19965;-66
2022/01/31 03:57:31;;;;;;;;;;;;;;;;;;4986100;28;19973;-67
2022/01/31 03:59:57;;;;;;;;;;;;;;;;;;4985195;28;20276;-68
2022/01/31 04:02:23;;;;;;;;;;;;;;;;;;4968931;28;20028;-67
2022/01/31 04:04:49;;;;;;;;;;;;;;;;;;4985816;28;20637;-66
2022/01/31 04:07:15;;;;;;;;;;;;;;;;;;4986230;28;19930;-66
2022/01/31 04:09:41;;;;;;;;;;;;;;;;;;4985888;28;20002;-67
2022/01/31 04:12:07;;;;;;;;;;;;;;;;;;4985581;28;19981;-66
2022/01/31 04:14:33;;;;;;;;;;;;;;;;;;4985500;28;19929;-63
2022/01/31 04:17:00;;;;;;;;;;;;;;;;;;4985507;28;19988;-65
2022/01/31 04:19:26;;;;;;;;;;;;;;;;;;4985664;28;20025;-63
2022/01/31 04:21:52;;;;;;;;;;;;;;;;;;4986429;28;19926;-66
2022/01/31 04:24:23;;;;;;;;;;;;;;;;;;4985669;28;20430;-66
2022/01/31 04:26:58;;;;;;;;;;;;;;;;;;4985112;28;19926;-66
2022/01/31 04:29:27;;;;;;;;;;;;;;;;;;4986102;28;19933;-66
2022/01/31 04:31:54;;;;;;;;;;;;;;;;;;4985643;28;20012;-66
2022/01/31 04:34:20;;;;;;;;;;;;;;;;;;4985319;28;20390;-65
2022/01/31 04:36:46;;;;;;;;;;;;;;;;;;4985443;28;19930;-66
2022/01/31 04:39:17;;;;;;;;;;;;;;;;;;4985791;28;19929;-65
2022/01/31 04:41:43;;;;;;;;;;;;;;;;;;4985162;28;19926;-65
2022/01/31 04:44:10;;;;;;;;;;;;;;;;;;4985753;28;19928;-66
2022/01/31 04:46:36;;;;;;;;;;;;;;;;;;4984869;28;19926;-66
2022/01/31 04:49:02;;;;;;;;;;;;;;;;;;4985403;28;19933;-67
2022/01/31 04:51:28;;;;;;;;;;;;;;;;;;4985238;28;20025;-66
2022/01/31 04:53:54;;;;;;;;;;;;;;;;;;4986128;28;20030;-65
2022/01/31 04:56:20;;;;;;;;;;;;;;;;;;4985714;28;19925;-66
2022/01/31 04:58:46;;;;;;;;;;;;;;;;;;4984793;28;20434;-66
2022/01/31 05:01:12;;;;;;;;;;;;;;;;;;4985101;28;19926;-66
2022/01/31 05:03:38;;;;;;;;;;;;;;;;;;4985101;28;20012;-66
2022/01/31 05:06:04;;;;;;;;;;;;;;;;;;4985275;28;20135;-66
2022/01/31 05:08:30;;;;;;;;;;;;;;;;;;4984944;28;20044;-65
2022/01/31 05:10:56;;;;;;;;;;;;;;;;;;4985561;28;19925;-65
2022/01/31 05:13:22;;;;;;;;;;;;;;;;;;4985089;28;20014;-66
2022/01/31 05:15:53;;;;;;;;;;;;;;;;;;4984246;28;19934;-66
2022/01/31 05:18:19;;;;;;;;;;;;;;;;;;4985428;28;20390;-66
2022/01/31 05:20:45;;;;;;;;;;;;;;;;;;4985014;28;19926;-65
2022/01/31 05:23:11;;;;;;;;;;;;;;;;;;4984722;28;20284;-66
2022/01/31 05:25:37;;;;;;;;;;;;;;;;;;4985484;28;19925;-66
2022/01/31 05:28:03;;;;;;;;;;;;;;;;;;4985252;28;20645;-65
2022/01/31 05:30:29;;;;;;;;;;;;;;;;;;4984140;28;19976;-66
2022/01/31 05:32:55;;;;;;;;;;;;;;;;;;4985404;28;19996;-66
2022/01/31 05:35:21;;;;;;;;;;;;;;;;;;4985455;28;19933;-66
2022/01/31 05:37:47;;;;;;;;;;;;;;;;;;4985765;28;19929;-66
2022/01/31 05:40:13;;;;;;;;;;;;;;;;;;4988773;28;20327;-66
2022/01/31 05:42:39;;;;;;;;;;;;;;;;;;4988665;28;19972;-66
2022/01/31 05:45:06;;;;;;;;;;;;;;;;;;4987884;28;19973;-66
2022/01/31 05:47:33;;;;;;;;;;;;;;;;;;4988585;28;19926;-66
2022/01/31 05:49:59;;;;;;;;;;;;;;;;;;4988623;28;19980;-66
2022/01/31 05:52:25;;;;;;;;;;;;;;;;;;4971223;28;19969;-65
2022/01/31 05:54:51;;;;;;;;;;;;;;;;;;4988553;28;19926;-66
2022/01/31 05:57:17;;;;;;;;;;;;;;;;;;4988650;28;19933;-66
2022/01/31 05:59:43;;;;;;;;;;;;;;;;;;5007119;28;19932;-65
2022/01/31 06:02:09;;;;;;;;;;;;;;;;;;5007600;28;19925;-67
2022/01/31 06:04:35;;;;;;;;;;;;;;;;;;5007611;28;20374;-67
2022/01/31 06:07:01;;;;;;;;;;;;;;;;;;5007669;28;19926;-67
2022/01/31 06:09:28;;;;;;;;;;;;;;;;;;5007655;28;19948;-66
2022/01/31 06:11:54;;;;;;;;;;;;;;;;;;4988188;28;20354;-66
2022/01/31 06:14:20;;;;;;;;;;;;;;;;;;5006575;28;19929;-66
2022/01/31 06:16:46;;;;;;;;;;;;;;;;;;5007587;28;19956;-66
2022/01/31 06:19:12;;;;;;;;;;;;;;;;;;5007698;28;19926;-66
2022/01/31 06:21:38;;;;;;;;;;;;;;;;;;4989908;28;19925;-65
2022/01/31 06:24:08;;;;;;;;;;;;;;;;;;5004202;28;20015;-66
2022/01/31 06:26:34;;;;;;;;;;;;;;;;;;4996679;28;19980;-66
2022/01/31 06:29:01;;;;;;;;;;;;;;;;;;4989035;28;19973;-65
2022/01/31 06:31:27;;;;;;;;;;;;;;;;;;4988132;28;19925;-65
2022/01/31 06:33:53;;;;;;;;;;;;;;;;;;4996886;28;19925;-66
2022/01/31 06:36:22;;;;;;;;;;;;;;;;;;5002054;28;19947;-67
2022/01/31 06:38:48;;;;;;;;;;;;;;;;;;5003658;28;20631;-66
2022/01/31 06:41:16;;;;;;;;;;;;;;;;;;4984766;28;19928;-66
2022/01/31 06:43:42;;;;;;;;;;;;;;;;;;4992152;28;19933;-66
2022/01/31 06:46:08;;;;;;;;;;;;;;;;;;4995209;28;20004;-66
2022/01/31 06:48:34;;;;;;;;;;;;;;;;;;4978964;28;20016;-66
2022/01/31 06:51:00;;;;;;;;;;;;;;;;;;4994836;28;20379;-66
2022/01/31 06:53:28;;;;;;;;;;;;;;;;;;4995606;28;19926;-66
2022/01/31 06:55:54;;;;;;;;;;;;;;;;;;4994695;28;19933;-66
2022/01/31 06:58:20;;;;;;;;;;;;;;;;;;5003652;28;19918;-66
2022/01/31 07:00:46;;;;;;;;;;;;;;;;;;5004975;28;19939;-67
2022/01/31 07:03:13;;;;;;;;;;;;;;;;;;5002053;28;19921;-68
2022/01/31 07:05:39;;;;;;;;;;;;;;;;;;5005367;28;20393;-65
2022/01/31 07:08:06;;;;;;;;;;;;;;;;;;5006732;28;19977;-65
2022/01/31 07:10:32;;;;;;;;;;;;;;;;;;5005724;28;20394;-66
2022/01/31 07:12:59;;;;;;;;;;;;;;;;;;5004841;28;19926;-67
2022/01/31 07:15:25;;;;;;;;;;;;;;;;;;5006057;28;19948;-67
2022/01/31 07:17:51;;;;;;;;;;;;;;;;;;5006261;28;19926;-66
2022/01/31 07:20:37;;;;;;;;;;;;;;;;;;5005960;28;19933;-66
2022/01/31 07:23:10;;;;;;;;;;;;;;;;;;5005908;28;20034;-66
2022/01/31 07:25:36;;;;;;;;;;;;;;;;;;5005445;28;19926;-66
2022/01/31 07:28:02;;;;;;;;;;;;;;;;;;5006198;28;19925;-65
2022/01/31 07:30:28;;;;;;;;;;;;;;;;;;5005190;28;20016;-66
2022/01/31 07:32:54;;;;;;;;;;;;;;;;;;5006242;28;19933;-66
2022/01/31 07:35:20;;;;;;;;;;;;;;;;;;5005977;28;19926;-67
2022/01/31 07:37:46;;;;;;;;;;;;;;;;;;5005805;28;20829;-67
2022/01/31 07:40:12;;;;;;;;;;;;;;;;;;5006186;28;19925;-67
2022/01/31 07:42:38;;;;;;;;;;;;;;;;;;5005037;28;19934;-66
2022/01/31 07:45:04;;;;;;;;;;;;;;;;;;5005247;28;19929;-66
2022/01/31 07:47:30;;;;;;;;;;;;;;;;;;5005867;28;19926;-65
2022/01/31 07:49:57;;;;;;;;;;;;;;;;;;5005344;28;19932;-64
2022/01/31 07:52:23;;;;;;;;;;;;;;;;;;5006029;28;20394;-66
2022/01/31 07:54:49;;;;;;;;;;;;;;;;;;5005505;28;19933;-66
2022/01/31 07:57:17;;;;;;;;;;;;;;;;;;5005006;28;19926;-67
2022/01/31 07:59:43;;;;;;;;;;;;;;;;;;5004768;28;19932;-67
2022/01/31 08:02:09;;;;;;;;;;;;;;;;;;5005575;28;20012;-67
2022/01/31 08:04:35;;;;;;;;;;;;;;;;;;5004997;28;20306;-67
2022/01/31 08:07:01;;;;;;;;;;;;;;;;;;5005207;28;20422;-67
2022/01/31 08:09:27;;;;;;;;;;;;;;;;;;5005420;28;19976;-67
2022/01/31 08:11:53;;;;;;;;;;;;;;;;;;5005546;28;19931;-67
2022/01/31 08:14:20;;;;;;;;;;;;;;;;;;5004130;28;20012;-67
2022/01/31 08:16:46;;;;;;;;;;;;;;;;;;5005425;28;19930;-67
2022/01/31 08:19:12;;;;;;;;;;;;;;;;;;5005531;28;20287;-67
2022/01/31 08:21:38;;;;;;;;;;;;;;;;;;5004579;28;19933;-67
2022/01/31 08:24:04;;;;;;;;;;;;;;;;;;5004757;28;20339;-67
2022/01/31 08:26:30;;;;;;;;;;;;;;;;;;5005047;28;19929;-67
2022/01/31 08:29:01;;;;;;;;;;;;;;;;;;5004958;28;19926;-68
2022/01/31 08:31:31;;;;;;;;;;;;;;;;;;5005311;28;19926;-67
2022/01/31 08:36:23;;;;;;;;;;;;;;;;;;5005060;28;20395;-67
2022/01/31 08:38:50;;;;;;;;;;;;;;;;;;5005019;28;20055;-67
2022/01/31 08:41:16;;;;;;;;;;;;;;;;;;5005036;28;20526;-67
2022/01/31 08:43:42;;;;;;;;;;;;;;;;;;5005072;28;19925;-67
2022/01/31 08:46:08;;;;;;;;;;;;;;;;;;5004313;28;19922;-67
2022/01/31 08:48:34;;;;;;;;;;;;;;;;;;5005039;28;20363;-67
2022/01/31 08:51:00;;;;;;;;;;;;;;;;;;5005062;28;19994;-67
2022/01/31 08:53:26;;;;;;;;;;;;;;;;;;5004208;28;19925;-67
2022/01/31 08:55:52;;;;;;;;;;;;;;;;;;4987571;28;19929;-67
2022/01/31 08:58:18;;;;;;;;;;;;;;;;;;5004962;28;20029;-66
2022/01/31 09:00:48;;;;;;;;;;;;;;;;;;5003641;28;20004;-67
2022/01/31 09:05:40;;;;;;;;;;;;;;;;;;5004706;28;19972;-67
2022/01/31 09:08:06;;;;;;;;;;;;;;;;;;5004615;28;19932;-67
2022/01/31 09:10:32;;;;;;;;;;;;;;;;;;5004580;28;19925;-67
2022/01/31 09:12:58;;;;;;;;;;;;;;;;;;4988654;28;19949;-67
2022/01/31 09:15:24;;;;;;;;;;;;;;;;;;5008409;28;19929;-67
2022/01/31 09:17:50;;;;;;;;;;;;;;;;;;5007789;28;19925;-67
2022/01/31 09:20:16;;;;;;;;;;;;;;;;;;5008522;28;20020;-67
2022/01/31 09:22:43;;;;;;;;;;;;;;;;;;5007821;28;20402;-67
2022/01/31 09:25:09;;;;;;;;;;;;;;;;;;5008040;28;19925;-67
2022/01/31 09:27:36;;;;;;;;;;;;;;;;;;5008448;28;19930;-67
2022/01/31 09:30:02;;;;;;;;;;;;;;;;;;5007760;28;19972;-67
2022/01/31 09:32:28;;;;;;;;;;;;;;;;;;5007787;28;20383;-67
2022/01/31 09:34:54;;;;;;;;;;;;;;;;;;5008512;28;19925;-67
2022/01/31 09:37:21;;;;;;;;;;;;;;;;;;5007931;28;19947;-67
2022/01/31 09:39:48;;;;;;;;;;;;;;;;;;5008123;28;19941;-67
2022/01/31 09:42:20;;;;;;;;;;;;;;;;;;5008193;28;19949;-67
2022/01/31 09:45:03;;;;;;;;;;;;;;;;;;5007563;28;20099;-66
2022/01/31 09:48:32;;;;;;;;;;;;;;;;;;5007642;28;19925;-67
2022/01/31 09:50:19;;;;;;;;;;;;;;;;;;5007823;28;19933;-67
2022/01/31 09:52:45;;;;;;;;;;;;;;;;;;4990014;28;19930;-67
2022/01/31 09:55:12;;;;;;;;;;;;;;;;;;5008002;28;20744;-67
2022/01/31 09:57:38;;;;;;;;;;;;;;;;;;5007608;28;19926;-66
2022/01/31 10:00:04;;;;;;;;;;;;;;;;;;5007143;28;19987;-67
2022/01/31 10:02:30;;;;;;;;;;;;;;;;;;5007107;28;19925;-66
2022/01/31 10:04:56;;;;;;;;;;;;;;;;;;4990427;28;19926;-66
2022/01/31 10:07:22;;;;;;;;;;;;;;;;;;5007526;28;20291;-67
2022/01/31 10:09:49;;;;;;;;;;;;;;;;;;5007426;28;20615;-67
2022/01/31 10:16:24;;;;;;;;;;;;;;;;;;5007544;28;20520;-67
2022/01/31 10:17:53;;;;;;;;;;;;;;;;;;5007543;28;19925;-67
2022/01/31 10:20:20;;;;;;;;;;;;;;;;;;5007412;28;19925;-66
2022/01/31 10:22:46;;;;;;;;;;;;;;;;;;5007090;28;19969;-67
2022/01/31 10:25:12;;;;;;;;;;;;;;;;;;5007057;28;20433;-67
2022/01/31 10:27:38;;;;;;;;;;;;;;;;;;5006652;28;19936;-66
2022/01/31 10:30:04;;;;;;;;;;;;;;;;;;4972932;28;20020;-66
2022/01/31 10:32:33;;;;;;;;;;;;;;;;;;5007081;28;20013;-67
2022/01/31 10:35:00;;;;;;;;;;;;;;;;;;5006644;28;20012;-66
2022/01/31 10:37:26;;;;;;;;;;;;;;;;;;5007155;28;19932;-63
2022/01/31 10:45:42;;;;;;;;;;;;;;;;;;5005837;28;19925;-67
2022/01/31 10:51:21;;;;;;;;;;;;;;;;;;4989069;28;19925;-67
2022/01/31 10:53:47;;;;;;;;;;;;;;;;;;5006459;28;19925;-66
2022/01/31 10:56:13;;;;;;;;;;;;;;;;;;4988643;28;20057;-66
2022/01/31 10:58:39;;;;;;;;;;;;;;;;;;5005561;28;19926;-67
2022/01/31 11:01:05;;;;;;;;;;;;;;;;;;5006667;28;19929;-66
2022/01/31 11:03:32;;;;;;;;;;;;;;;;;;5006049;28;19926;-67
2022/01/31 11:05:59;;;;;;;;;;;;;;;;;;5006776;28;20291;-67
2022/01/31 11:08:25;;;;;;;;;;;;;;;;;;4989454;28;19925;-66
2022/01/31 11:10:51;;;;;;;;;;;;;;;;;;4989153;28;19949;-66
2022/01/31 11:13:17;;;;;;;;;;;;;;;;;;5005993;28;20423;-66
2022/01/31 11:15:43;;;;;;;;;;;;;;;;;;4987830;28;19925;-65
2022/01/31 11:18:09;;;;;;;;;;;;;;;;;;5006188;28;19936;-66
2022/01/31 11:20:37;;;;;;;;;;;;;;;;;;5006095;28;19922;-66
2022/01/31 11:23:03;;;;;;;;;;;;;;;;;;5006112;28;20379;-66
2022/01/31 11:25:29;;;;;;;;;;;;;;;;;;5006180;28;20207;-66
2022/01/31 11:27:55;;;;;;;;;;;;;;;;;;5005755;28;19932;-66
2022/01/31 11:30:21;;;;;;;;;;;;;;;;;;4988144;28;19917;-66
2022/01/31 11:32:48;;;;;;;;;;;;;;;;;;5005469;28;20080;-66
2022/01/31 11:35:14;;;;;;;;;;;;;;;;;;5004632;28;19933;-67
2022/01/31 11:37:40;;;;;;;;;;;;;;;;;;5004974;28;19997;-67
2022/01/31 11:40:06;;;;;;;;;;;;;;;;;;5004770;28;19972;-66
2022/01/31 11:42:32;;;;;;;;;;;;;;;;;;5004879;28;20295;-66
2022/01/31 11:44:58;;;;;;;;;;;;;;;;;;5004903;28;20012;-66
2022/01/31 11:47:24;;;;;;;;;;;;;;;;;;5005857;28;20462;-67
2022/01/31 11:49:52;;;;;;;;;;;;;;;;;;5005760;28;19996;-66
2022/01/31 11:52:18;;;;;;;;;;;;;;;;;;5005612;28;20341;-67
2022/01/31 11:54:45;;;;;;;;;;;;;;;;;;5005506;28;19950;-67
2022/01/31 11:57:11;;;;;;;;;;;;;;;;;;5006042;28;19949;-67
2022/01/31 11:59:37;;;;;;;;;;;;;;;;;;5004219;28;19925;-67
2022/01/31 12:02:03;;;;;;;;;;;;;;;;;;5005853;28;20411;-66
2022/01/31 12:04:29;;;;;;;;;;;;;;;;;;5005580;28;20472;-67
2022/01/31 12:06:55;;;;;;;;;;;;;;;;;;5005643;28;19981;-67
2022/01/31 12:09:24;;;;;;;;;;;;;;;;;;5005248;28;20028;-68
2022/01/31 12:11:50;;;;;;;;;;;;;;;;;;5004686;28;19925;-66
2022/01/31 12:14:23;;;;;;;;;;;;;;;;;;5004049;28;20247;-66
2022/01/31 12:17:02;;;;;;;;;;;;;;;;;;4987085;28;20008;-66
2022/01/31 12:19:32;;;;;;;;;;;;;;;;;;5004350;28;19926;-66
2022/01/31 12:22:00;;;;;;;;;;;;;;;;;;5004770;28;19961;-65
2022/01/31 12:24:27;;;;;;;;;;;;;;;;;;5004875;28;19925;-67
2022/01/31 12:26:54;;;;;;;;;;;;;;;;;;5005793;28;19953;-65
2022/01/31 12:29:20;;;;;;;;;;;;;;;;;;5003952;28;19932;-67
2022/01/31 12:31:46;;;;;;;;;;;;;;;;;;5004833;28;19929;-66
2022/01/31 12:34:12;;;;;;;;;;;;;;;;;;5005210;28;19941;-66
2022/01/31 12:36:38;;;;;;;;;;;;;;;;;;5004657;28;19929;-67
2022/01/31 12:39:05;;;;;;;;;;;;;;;;;;5005382;28;19934;-66
2022/01/31 12:41:31;;;;;;;;;;;;;;;;;;5004069;28;20514;-67
2022/01/31 12:43:58;;;;;;;;;;;;;;;;;;5000368;28;20372;-66
2022/01/31 12:46:24;;;;;;;;;;;;;;;;;;5005296;28;20031;-66
2022/01/31 12:48:50;;;;;;;;;;;;;;;;;;5008457;28;19925;-67
2022/01/31 12:51:18;;;;;;;;;;;;;;;;;;5008700;28;19944;-67
2022/01/31 12:53:46;;;;;;;;;;;;;;;;;;5008866;28;20394;-66
2022/01/31 12:56:14;;;;;;;;;;;;;;;;;;5009196;28;19933;-67
2022/01/31 12:58:40;;;;;;;;;;;;;;;;;;5008249;28;19961;-67
2022/01/31 13:01:06;;;;;;;;;;;;;;;;;;5008470;28;19925;-66
2022/01/31 13:03:32;;;;;;;;;;;;;;;;;;5008575;28;20295;-66
2022/01/31 13:05:58;;;;;;;;;;;;;;;;;;5009090;28;20341;-66
2022/01/31 13:08:24;;;;;;;;;;;;;;;;;;5008792;28;20382;-66
2022/01/31 13:10:52;;;;;;;;;;;;;;;;;;5008856;28;19926;-66
2022/01/31 13:13:18;;;;;;;;;;;;;;;;;;5007573;28;19933;-66
2022/01/31 13:15:45;;;;;;;;;;;;;;;;;;5008038;28;19925;-66
2022/01/31 13:18:11;;;;;;;;;;;;;;;;;;5008917;28;19925;-66
2022/01/31 13:20:37;;;;;;;;;;;;;;;;;;5008401;28;19926;-67
2022/01/31 13:23:03;;;;;;;;;;;;;;;;;;5007680;28;19933;-67
2022/01/31 13:25:29;;;;;;;;;;;;;;;;;;4990761;28;19940;-66
2022/01/31 13:27:55;;;;;;;;;;;;;;;;;;5004790;28;19929;-66
2022/01/31 13:30:21;;;;;;;;;;;;;;;;;;4988434;28;20390;-67
2022/01/31 13:32:48;;;;;;;;;;;;;;;;;;5005211;28;19922;-66
2022/01/31 13:35:14;;;;;;;;;;;;;;;;;;5006227;28;19925;-66
2022/01/31 13:37:40;;;;;;;;;;;;;;;;;;5005178;28;20655;-67
2022/01/31 13:40:06;;;;;;;;;;;;;;;;;;5004994;28;19932;-68
2022/01/31 13:42:38;;;;;;;;;;;;;;;;;;5005777;28;20490;-67
2022/01/31 13:45:04;;;;;;;;;;;;;;;;;;5005193;28;19949;-67
2022/01/31 13:47:35;;;;;;;;;;;;;;;;;;5004806;28;19979;-66
2022/01/31 13:50:03;;;;;;;;;;;;;;;;;;5005731;28;19929;-67
2022/01/31 13:52:33;;;;;;;;;;;;;;;;;;4987527;28;20668;-66
2022/01/31 13:54:59;;;;;;;;;;;;;;;;;;5005106;28;20020;-66
2022/01/31 13:57:25;;;;;;;;;;;;;;;;;;5005867;28;19929;-63
2022/01/31 13:59:52;;;;;;;;;;;;;;;;;;5004462;28;20591;-67
2022/01/31 14:02:19;;;;;;;;;;;;;;;;;;5005167;28;20016;-68
2022/01/31 14:04:45;;;;;;;;;;;;;;;;;;5005467;28;19929;-67
2022/01/31 14:07:11;;;;;;;;;;;;;;;;;;5004822;28;19925;-66
2022/01/31 14:09:37;;;;;;;;;;;;;;;;;;5005179;28;20339;-69
2022/01/31 14:12:05;;;;;;;;;;;;;;;;;;5005128;28;19941;-67
2022/01/31 14:14:31;;;;;;;;;;;;;;;;;;5003610;28;19936;-67
2022/01/31 14:16:58;;;;;;;;;;;;;;;;;;5005497;28;19952;-67
2022/01/31 14:19:24;;;;;;;;;;;;;;;;;;5004963;28;19929;-67
2022/01/31 14:21:50;;;;;;;;;;;;;;;;;;5005243;28;20147;-67
2022/01/31 14:24:17;;;;;;;;;;;;;;;;;;5004637;28;20405;-67
2022/01/31 14:26:43;;;;;;;;;;;;;;;;;;5004027;28;19925;-67
2022/01/31 14:29:10;;;;;;;;;;;;;;;;;;5003755;28;19926;-67
2022/01/31 14:31:36;;;;;;;;;;;;;;;;;;5004721;28;19975;-67
2022/01/31 14:34:02;;;;;;;;;;;;;;;;;;5004071;28;19930;-69
2022/01/31 14:36:34;;;;;;;;;;;;;;;;;;5004325;28;19976;-68
2022/01/31 14:39:08;;;;;;;;;;;;;;;;;;5004405;28;20703;-65
2022/01/31 14:41:51;;;;;;;;;;;;;;;;;;5003969;28;20375;-68
2022/01/31 14:47:16;;;;;;;;;;;;;;;;;;5004675;28;19930;-68
2022/01/31 14:49:42;;;;;;;;;;;;;;;;;;5001862;28;19988;-68
2022/01/31 14:52:08;;;;;;;;;;;;;;;;;;5004086;28;19936;-68
2022/01/31 14:54:34;;;;;;;;;;;;;;;;;;4986406;28;19936;-66
2022/01/31 14:57:00;;;;;;;;;;;;;;;;;;4985861;28;20465;-66
2022/01/31 14:59:26;;;;;;;;;;;;;;;;;;5003438;28;19925;-66
2022/01/31 15:01:53;;;;;;;;;;;;;;;;;;5003742;28;19932;-67
2022/01/31 15:04:19;;;;;;;;;;;;;;;;;;5003297;28;19929;-67
2022/01/31 15:06:45;;;;;;;;;;;;;;;;;;4995352;28;20398;-68
2022/01/31 15:09:11;;;;;;;;;;;;;;;;;;4984948;28;20283;-67
2022/01/31 15:11:37;;;;;;;;;;;;;;;;;;4984801;28;20805;-68
2022/01/31 15:14:03;;;;;;;;;;;;;;;;;;4984588;28;20371;-67
2022/01/31 15:16:30;;;;;;;;;;;;;;;;;;4980228;28;20429;-67
2022/01/31 15:18:56;;;;;;;;;;;;;;;;;;4983809;28;20028;-68
2022/01/31 15:21:26;;;;;;;;;;;;;;;;;;4998004;28;20028;-67
2022/01/31 15:23:54;;;;;;;;;;;;;;;;;;5002964;28;19925;-67
2022/01/31 15:26:20;;;;;;;;;;;;;;;;;;5002730;28;19926;-68
2022/01/31 15:28:46;;;;;;;;;;;;;;;;;;4983885;28;20168;-67
2022/01/31 15:31:13;;;;;;;;;;;;;;;;;;4985862;28;19932;-66
2022/01/31 15:33:39;;;;;;;;;;;;;;;;;;5003122;28;20024;-67
2022/01/31 15:36:07;;;;;;;;;;;;;;;;;;4985272;28;20039;-68
2022/01/31 15:38:35;;;;;;;;;;;;;;;;;;5001648;28;20473;-66
2022/01/31 15:41:01;;;;;;;;;;;;;;;;;;5000495;28;19925;-67
2022/01/31 15:43:29;;;;;;;;;;;;;;;;;;5001001;28;19956;-67
2022/01/31 15:45:55;;;;;;;;;;;;;;;;;;5003042;28;20031;-67
2022/01/31 15:48:22;;;;;;;;;;;;;;;;;;5000319;28;19926;-67
2022/01/31 15:50:48;;;;;;;;;;;;;;;;;;5001628;28;19925;-67
2022/01/31 15:53:14;;;;;;;;;;;;;;;;;;5002225;28;20751;-67
2022/01/31 15:55:41;;;;;;;;;;;;;;;;;;5002795;28;19929;-66
2022/01/31 15:58:07;;;;;;;;;;;;;;;;;;5002028;28;19972;-66
2022/01/31 16:00:35;;;;;;;;;;;;;;;;;;5002120;28;19926;-66
2022/01/31 16:03:03;;;;;;;;;;;;;;;;;;5002555;28;19980;-66
2022/01/31 16:05:29;;;;;;;;;;;;;;;;;;5002725;28;20394;-67
2022/01/31 16:07:55;;;;;;;;;;;;;;;;;;5002497;28;20380;-66
2022/01/31 16:10:21;;;;;;;;;;;;;;;;;;5003392;28;19929;-66
2022/01/31 16:12:47;;;;;;;;;;;;;;;;;;5001379;28;19933;-66
2022/01/31 16:15:15;;;;;;;;;;;;;;;;;;5001258;28;19941;-66
2022/01/31 16:17:41;;;;;;;;;;;;;;;;;;5002322;28;19929;-66
2022/01/31 16:20:07;;;;;;;;;;;;;;;;;;4985097;28;19925;-68
2022/01/31 16:22:33;;;;;;;;;;;;;;;;;;5001762;28;19930;-67
2022/01/31 16:24:59;;;;;;;;;;;;;;;;;;4998914;28;19933;-66
2022/01/31 16:27:29;;;;;;;;;;;;;;;;;;4993067;28;19922;-67
2022/01/31 16:29:55;;;;;;;;;;;;;;;;;;4965640;28;19925;-67
2022/01/31 16:32:21;;;;;;;;;;;;;;;;;;4984645;28;19933;-67
2022/01/31 16:34:47;;;;;;;;;;;;;;;;;;4982846;28;19926;-66
2022/01/31 16:37:13;;;;;;;;;;;;;;;;;;4983336;28;19925;-66
2022/01/31 16:39:39;;;;;;;;;;;;;;;;;;4985979;28;20299;-66
2022/01/31 16:42:05;;;;;;;;;;;;;;;;;;5002136;28;19930;-66
2022/01/31 16:44:33;;;;;;;;;;;;;;;;;;4993867;28;19932;-66
2022/01/31 16:46:59;;;;;;;;;;;;;;;;;;4997267;28;20035;-66
2022/01/31 16:49:25;;;;;;;;;;;;;;;;;;5001531;28;19972;-66
2022/01/31 16:51:51;;;;;;;;;;;;;;;;;;5004846;28;19925;-66
2022/01/31 16:54:17;;;;;;;;;;;;;;;;;;5004591;28;19926;-66
2022/01/31 16:56:43;;;;;;;;;;;;;;;;;;5004183;28;19933;-66
2022/01/31 16:59:09;;;;;;;;;;;;;;;;;;5003804;28;19925;-66
2022/01/31 17:01:35;;;;;;;;;;;;;;;;;;5003641;28;19980;-66
2022/01/31 17:04:01;;;;;;;;;;;;;;;;;;4986827;28;20379;-66